Time;durP1;ratioP1;P1;durP2;ratioP2;P2;SDS_P1;SDS_P2;PMS_P1;PMS_P2;Temp;Humidity;BMP_temperature;BMP_pressure;BME280_temperature;BME280_humidity;BME280_pressure;Samples;Min_cycle;Max_cycle;Signal;HPM_P1;HPM_P2
2022/06/26 00:00:20;;;;;;;13.57;3.08;;;18.50;65.80;;;;;;4132162;28;20038;-87
2022/06/26 00:02:40;;;;;;;11.52;3.13;;;18.50;65.80;;;;;;4121734;28;20767;-86
2022/06/26 00:05:03;;;;;;;11.05;2.58;;;18.40;65.90;;;;;;4130876;28;20125;-88
2022/06/26 00:07:25;;;;;;;9.73;2.53;;;18.40;66.00;;;;;;4122513;28;20510;-86
2022/06/26 00:09:46;;;;;;;9.32;2.53;;;18.40;66.00;;;;;;4132604;28;20042;-88
2022/06/26 00:12:08;;;;;;;5.47;2.63;;;18.40;66.10;;;;;;4132885;28;20041;-87
2022/06/26 00:14:29;;;;;;;10.50;3.00;;;18.30;66.10;;;;;;4137123;28;20041;-86
2022/06/26 00:16:50;;;;;;;8.25;2.40;;;18.30;66.10;;;;;;4128112;28;20042;-88
2022/06/26 00:19:11;;;;;;;7.53;2.65;;;18.30;66.20;;;;;;4119696;28;20031;-87
2022/06/26 00:21:32;;;;;;;6.65;2.67;;;18.20;66.30;;;;;;4123459;28;20059;-86
2022/06/26 00:23:53;;;;;;;10.27;3.00;;;18.20;66.30;;;;;;4138256;28;20034;-87
2022/06/26 00:26:14;;;;;;;13.43;3.20;;;18.10;66.30;;;;;;4122041;28;20109;-86
2022/06/26 00:28:35;;;;;;;7.95;2.65;;;18.10;66.30;;;;;;4133224;28;20058;-87
2022/06/26 00:30:56;;;;;;;9.73;2.80;;;18.10;66.60;;;;;;4122808;28;20464;-86
2022/06/26 00:33:17;;;;;;;7.78;3.20;;;18.10;66.70;;;;;;4140676;28;20042;-87
2022/06/26 00:35:38;;;;;;;9.55;3.20;;;18.00;66.80;;;;;;4129646;28;20041;-87
2022/06/26 00:37:59;;;;;;;9.95;3.17;;;18.00;67.00;;;;;;4119903;28;20045;-87
2022/06/26 00:40:20;;;;;;;10.65;2.88;;;18.00;67.10;;;;;;4128201;28;20045;-86
2022/06/26 00:42:41;;;;;;;9.45;3.03;;;18.00;67.30;;;;;;4122390;28;20046;-86
2022/06/26 00:45:04;;;;;;;6.70;3.13;;;17.90;67.30;;;;;;4120177;28;20108;-86
2022/06/26 00:47:26;;;;;;;14.10;3.17;;;17.90;67.40;;;;;;4130204;28;20048;-86
2022/06/26 00:49:47;;;;;;;9.13;4.03;;;17.90;67.50;;;;;;4116283;28;20030;-86
2022/06/26 00:52:08;;;;;;;3.67;2.65;;;17.80;67.60;;;;;;4135424;28;20653;-86
2022/06/26 00:54:30;;;;;;;7.90;2.85;;;17.80;67.80;;;;;;4118976;28;20045;-86
2022/06/26 00:56:51;;;;;;;12.60;3.03;;;17.80;67.80;;;;;;4128684;28;20041;-88
2022/06/26 00:59:13;;;;;;;19.70;3.80;;;17.80;67.90;;;;;;4118319;28;20034;-86
2022/06/26 01:01:34;;;;;;;10.85;3.60;;;17.80;67.90;;;;;;4134015;28;20061;-85
2022/06/26 01:03:55;;;;;;;7.53;3.78;;;17.70;67.90;;;;;;4120309;28;20022;-86
2022/06/26 01:06:17;;;;;;;10.00;3.70;;;17.70;68.00;;;;;;4116552;28;20042;-86
2022/06/26 01:08:38;;;;;;;6.50;2.95;;;17.60;68.00;;;;;;4132460;28;20034;-86
2022/06/26 01:11:01;;;;;;;11.93;3.58;;;17.60;68.00;;;;;;4132573;28;20044;-86
2022/06/26 01:13:22;;;;;;;15.25;3.78;;;17.60;68.10;;;;;;4114235;28;20031;-86
2022/06/26 01:15:44;;;;;;;5.38;3.10;;;17.60;68.10;;;;;;4122521;28;20057;-86
2022/06/26 01:18:05;;;;;;;8.85;3.58;;;17.50;68.10;;;;;;4130047;28;20034;-86
2022/06/26 01:20:27;;;;;;;18.85;4.30;;;17.50;68.20;;;;;;4133876;28;20037;-86
2022/06/26 01:23:02;;;;;;;14.27;4.00;;;17.50;68.20;;;;;;4133338;28;20114;-86
2022/06/26 01:25:23;;;;;;;13.07;3.60;;;17.40;68.50;;;;;;4133746;28;20030;-86
2022/06/26 01:27:44;;;;;;;13.93;3.95;;;17.40;68.40;;;;;;4122364;28;20034;-86
2022/06/26 01:30:06;;;;;;;12.10;4.15;;;17.40;68.70;;;;;;4120200;28;20038;-86
2022/06/26 01:32:27;;;;;;;11.40;3.67;;;17.30;69.00;;;;;;4130923;28;20529;-86
2022/06/26 01:34:48;;;;;;;16.33;3.72;;;17.30;69.30;;;;;;4135225;28;20041;-86
2022/06/26 01:37:09;;;;;;;11.30;3.38;;;17.30;69.40;;;;;;4121801;28;20022;-86
2022/06/26 01:39:31;;;;;;;12.40;3.45;;;17.30;69.50;;;;;;4128142;28;20041;-86
2022/06/26 01:41:52;;;;;;;11.93;3.63;;;17.30;69.50;;;;;;4134636;28;20057;-87
2022/06/26 01:44:13;;;;;;;17.65;3.80;;;17.30;69.60;;;;;;4135480;28;20030;-87
2022/06/26 01:46:35;;;;;;;15.75;3.35;;;17.30;69.60;;;;;;4135217;28;20034;-87
2022/06/26 01:48:56;;;;;;;17.70;3.80;;;17.20;69.60;;;;;;4134998;28;20092;-87
2022/06/26 01:51:17;;;;;;;20.75;3.63;;;17.20;69.80;;;;;;4135172;28;20164;-87
2022/06/26 01:53:38;;;;;;;10.65;3.33;;;17.20;69.90;;;;;;4133495;28;20037;-86
2022/06/26 01:56:00;;;;;;;16.23;4.05;;;17.20;70.00;;;;;;4130233;28;20037;-86
2022/06/26 01:58:21;;;;;;;4.85;3.38;;;17.10;70.10;;;;;;4132516;28;20037;-87
2022/06/26 02:00:44;;;;;;;9.13;3.50;;;17.10;70.10;;;;;;4124696;28;20608;-87
2022/06/26 02:03:06;;;;;;;12.23;3.17;;;17.10;70.10;;;;;;4113857;28;20141;-87
2022/06/26 02:05:27;;;;;;;5.78;3.08;;;17.10;70.10;;;;;;4131990;28;20026;-87
2022/06/26 02:07:49;;;;;;;10.73;3.10;;;17.10;70.20;;;;;;4131032;28;20026;-86
2022/06/26 02:15:29;;;;;;;12.65;4.03;;;17.10;70.40;;;;;;4131236;28;20034;-87
2022/06/26 02:17:50;;;;;;;15.60;4.25;;;17.00;70.20;;;;;;4127925;28;20177;-86
2022/06/26 02:20:12;;;;;;;14.93;3.67;;;17.00;70.20;;;;;;4128980;28;20513;-87
2022/06/26 02:22:33;;;;;;;25.80;4.13;;;17.00;70.30;;;;;;4124341;28;20033;-86
2022/06/26 02:24:54;;;;;;;6.68;3.15;;;17.00;70.30;;;;;;4128269;28;20105;-88
2022/06/26 02:27:15;;;;;;;16.13;4.20;;;17.00;70.30;;;;;;4117652;28;20438;-86
2022/06/26 02:29:36;;;;;;;11.68;3.17;;;16.90;70.30;;;;;;4129762;28;20108;-87
2022/06/26 02:31:57;;;;;;;8.68;3.15;;;16.90;70.40;;;;;;4134629;28;20057;-86
2022/06/26 02:34:18;;;;;;;13.63;3.17;;;16.90;70.50;;;;;;4120846;28;20038;-87
2022/06/26 02:36:39;;;;;;;7.00;3.25;;;16.90;70.60;;;;;;4121911;28;20048;-87
2022/06/26 02:39:00;;;;;;;9.38;3.10;;;16.90;70.70;;;;;;4129771;28;20032;-87
2022/06/26 02:41:22;;;;;;;8.95;3.17;;;16.90;70.80;;;;;;4118932;28;20491;-87
2022/06/26 02:43:43;;;;;;;10.63;2.80;;;16.80;70.90;;;;;;4126955;28;20045;-88
2022/06/26 02:46:04;;;;;;;9.30;3.10;;;16.80;71.00;;;;;;4122465;28;20053;-87
2022/06/26 02:48:25;;;;;;;4.88;2.47;;;16.80;71.10;;;;;;4134850;28;20463;-88
2022/06/26 02:50:49;;;;;;;8.60;3.40;;;16.80;71.10;;;;;;4119857;28;20458;-87
2022/06/26 02:53:10;;;;;;;13.52;3.40;;;16.80;71.20;;;;;;4130933;28;20038;-87
2022/06/26 02:55:32;;;;;;;8.30;3.30;;;16.80;71.20;;;;;;4134890;28;20038;-86
2022/06/26 02:57:53;;;;;;;4.80;3.03;;;16.80;71.30;;;;;;4126723;28;20117;-87
2022/06/26 03:00:14;;;;;;;7.20;3.40;;;16.80;71.40;;;;;;4131349;28;20449;-88
2022/06/26 03:02:35;;;;;;;9.10;3.33;;;16.80;71.40;;;;;;4129523;28;20394;-86
2022/06/26 03:04:57;;;;;;;11.38;3.53;;;16.80;71.40;;;;;;4133515;28;20029;-86
2022/06/26 03:07:18;;;;;;;5.07;3.30;;;16.80;71.40;;;;;;4132925;28;20038;-86
2022/06/26 03:09:39;;;;;;;9.02;3.60;;;16.80;72.10;;;;;;4136203;28;20074;-87
2022/06/26 03:12:00;;;;;;;19.00;4.45;;;16.80;71.50;;;;;;4136023;28;20033;-87
2022/06/26 03:14:21;;;;;;;5.68;2.95;;;16.80;71.60;;;;;;4136235;28;20133;-86
2022/06/26 03:16:42;;;;;;;17.95;4.80;;;16.80;71.60;;;;;;4127585;28;20089;-86
2022/06/26 03:19:03;;;;;;;16.42;4.18;;;16.80;71.50;;;;;;4133624;28;20081;-87
2022/06/26 03:21:24;;;;;;;17.63;5.65;;;16.80;71.60;;;;;;4137484;28;20030;-86
2022/06/26 03:24:01;;;;;;;10.48;4.57;;;16.80;71.70;;;;;;4125477;28;20034;-88
2022/06/26 03:26:22;;;;;;;10.50;4.22;;;16.80;71.70;;;;;;4134636;28;20426;-86
2022/06/26 03:28:43;;;;;;;21.63;5.55;;;16.80;71.80;;;;;;4131574;28;20052;-88
2022/06/26 03:31:04;;;;;;;11.23;5.03;;;16.80;71.90;;;;;;4124350;28;20443;-87
2022/06/26 03:33:26;;;;;;;7.03;4.65;;;16.80;72.00;;;;;;4137948;28;20107;-86
2022/06/26 03:35:46;;;;;;;11.35;4.60;;;16.80;72.00;;;;;;4134923;28;20065;-86
2022/06/26 03:38:10;;;;;;;9.65;5.32;;;16.70;72.10;;;;;;4134164;28;20437;-86
2022/06/26 03:40:31;;;;;;;12.65;5.63;;;16.80;72.20;;;;;;4123920;28;20070;-86
2022/06/26 03:42:52;;;;;;;11.48;5.18;;;16.80;72.30;;;;;;4136047;28;20045;-87
2022/06/26 03:45:14;;;;;;;15.70;7.20;;;16.80;72.40;;;;;;4134425;28;20034;-86
2022/06/26 03:47:35;;;;;;;12.85;7.78;;;16.80;72.50;;;;;;4130125;28;20522;-87
2022/06/26 03:49:56;;;;;;;14.15;9.00;;;16.80;72.60;;;;;;4139712;28;20040;-87
2022/06/26 03:52:17;;;;;;;18.05;10.13;;;16.80;72.80;;;;;;4125444;28;20491;-87
2022/06/26 03:54:38;;;;;;;17.50;9.98;;;16.90;73.00;;;;;;4120126;28;20039;-87
2022/06/26 03:56:59;;;;;;;17.30;11.90;;;16.90;73.20;;;;;;4133973;28;20126;-87
2022/06/26 03:59:20;;;;;;;21.67;12.40;;;16.90;73.40;;;;;;4130999;28;20056;-87
2022/06/26 04:01:41;;;;;;;21.92;14.15;;;16.90;73.60;;;;;;4118204;28;20577;-88
2022/06/26 04:04:02;;;;;;;20.75;13.95;;;17.00;73.80;;;;;;4132701;28;20789;-87
2022/06/26 04:06:23;;;;;;;26.55;16.65;;;17.00;74.20;;;;;;4134609;28;20061;-90
2022/06/26 04:08:45;;;;;;;38.10;19.73;;;17.10;74.50;;;;;;4132419;28;20031;-86
2022/06/26 04:11:06;;;;;;;35.15;19.23;;;17.10;74.80;;;;;;4132244;28;20121;-89
2022/06/26 04:13:27;;;;;;;32.30;19.92;;;17.20;75.00;;;;;;4133018;28;20037;-86
2022/06/26 04:15:48;;;;;;;34.78;21.25;;;17.20;75.30;;;;;;4136586;28;20714;-88
2022/06/26 04:18:11;;;;;;;38.20;22.17;;;17.30;76.30;;;;;;4132282;28;20038;-86
2022/06/26 04:20:32;;;;;;;37.50;23.73;;;17.30;75.70;;;;;;4123037;28;20034;-87
2022/06/26 04:23:04;;;;;;;39.10;26.63;;;17.40;75.90;;;;;;4117656;28;20050;-88
2022/06/26 04:25:27;;;;;;;40.60;24.48;;;17.40;76.40;;;;;;4132363;28;20486;-86
2022/06/26 04:27:48;;;;;;;44.97;26.45;;;17.50;76.20;;;;;;4125478;28;20074;-87
2022/06/26 04:30:09;;;;;;;40.67;27.60;;;17.50;76.50;;;;;;4126519;28;20632;-88
2022/06/26 04:32:30;;;;;;;44.55;27.42;;;17.50;76.60;;;;;;4131990;28;20037;-86
2022/06/26 04:34:51;;;;;;;46.85;28.95;;;17.60;76.90;;;;;;4115736;28;20042;-87
2022/06/26 04:37:12;;;;;;;43.88;27.65;;;17.60;77.20;;;;;;4133140;28;20026;-86
2022/06/26 04:39:33;;;;;;;43.55;27.88;;;17.70;77.80;;;;;;4134967;28;20046;-87
2022/06/26 04:41:54;;;;;;;42.28;27.38;;;17.80;78.10;;;;;;4132810;28;20038;-87
2022/06/26 04:44:18;;;;;;;52.22;28.27;;;17.80;78.30;;;;;;4131149;28;20863;-88
2022/06/26 04:46:41;;;;;;;39.95;27.17;;;17.90;78.60;;;;;;4135612;28;20053;-86
2022/06/26 04:49:03;;;;;;;45.05;27.15;;;18.00;78.80;;;;;;4139014;28;20034;-86
2022/06/26 04:51:24;;;;;;;41.33;24.98;;;18.10;79.00;;;;;;4134149;28;20039;-86
2022/06/26 04:53:45;;;;;;;38.35;25.48;;;18.20;79.20;;;;;;4130837;28;20042;-87
2022/06/26 04:56:06;;;;;;;34.47;24.35;;;18.20;79.40;;;;;;4134139;28;20042;-86
2022/06/26 04:58:27;;;;;;;31.67;22.58;;;18.30;79.60;;;;;;4120588;28;20038;-87
2022/06/26 05:00:48;;;;;;;32.70;22.50;;;18.40;79.80;;;;;;4123897;28;20038;-88
2022/06/26 05:03:09;;;;;;;38.63;23.83;;;18.50;80.00;;;;;;4129094;28;20034;-86
2022/06/26 05:05:30;;;;;;;32.60;21.83;;;18.60;80.20;;;;;;4131029;28;20109;-88
2022/06/26 05:07:52;;;;;;;32.25;21.58;;;18.70;80.50;;;;;;4126723;28;20442;-86
2022/06/26 05:10:13;;;;;;;33.92;21.33;;;18.80;80.70;;;;;;4119211;28;20338;-87
2022/06/26 05:12:34;;;;;;;31.35;20.77;;;18.90;80.80;;;;;;4130596;28;20041;-88
2022/06/26 05:14:55;;;;;;;30.73;19.05;;;19.10;80.90;;;;;;4120215;28;20721;-87
2022/06/26 05:17:15;;;;;;;28.73;19.83;;;19.20;80.70;;;;;;4135959;28;20072;-86
2022/06/26 05:19:37;;;;;;;32.22;20.80;;;19.30;80.50;;;;;;4125715;28;20574;-87
2022/06/26 05:21:58;;;;;;;28.35;19.98;;;19.40;80.50;;;;;;4132275;28;20559;-86
2022/06/26 05:24:19;;;;;;;30.40;18.02;;;19.50;80.10;;;;;;4135090;28;20110;-87
2022/06/26 05:26:40;;;;;;;28.38;18.52;;;19.60;80.00;;;;;;4131434;28;20501;-86
2022/06/26 05:29:01;;;;;;;29.55;18.38;;;19.80;79.80;;;;;;4133816;28;20030;-87
2022/06/26 05:31:23;;;;;;;26.10;18.90;;;19.90;79.60;;;;;;4135749;28;20034;-88
2022/06/26 05:33:44;;;;;;;24.13;17.63;;;20.10;79.50;;;;;;4134594;28;20678;-87
2022/06/26 05:36:07;;;;;;;25.55;17.08;;;20.20;79.10;;;;;;4124455;28;20034;-87
2022/06/26 05:38:28;;;;;;;23.10;17.10;;;20.40;78.80;;;;;;4131751;28;20053;-88
2022/06/26 05:40:49;;;;;;;23.98;16.33;;;20.40;78.40;;;;;;4124270;28;20046;-87
2022/06/26 05:43:10;;;;;;;24.27;14.98;;;20.60;78.10;;;;;;4135317;28;20045;-88
2022/06/26 05:45:31;;;;;;;23.45;14.50;;;20.70;77.40;;;;;;4133942;28;20062;-86
2022/06/26 05:47:52;;;;;;;20.08;13.55;;;20.80;76.60;;;;;;4123588;28;20026;-88
2022/06/26 05:50:13;;;;;;;22.95;13.32;;;21.00;75.90;;;;;;4122257;28;20042;-86
2022/06/26 05:52:34;;;;;;;20.90;12.75;;;21.00;75.10;;;;;;4132385;28;20027;-88
2022/06/26 05:54:55;;;;;;;23.23;13.23;;;21.20;74.60;;;;;;4136898;28;20100;-87
2022/06/26 05:57:17;;;;;;;17.00;13.07;;;21.20;73.90;;;;;;4133293;28;20030;-88
2022/06/26 05:59:39;;;;;;;18.25;12.82;;;21.30;73.20;;;;;;4135079;28;20060;-88
2022/06/26 06:02:00;;;;;;;19.60;11.73;;;21.40;72.90;;;;;;4138477;28;20110;-86
2022/06/26 06:04:21;;;;;;;18.67;11.95;;;21.50;72.70;;;;;;4130842;28;20045;-88
2022/06/26 06:06:42;;;;;;;20.98;12.07;;;21.60;72.50;;;;;;4130301;28;20039;-89
2022/06/26 06:09:03;;;;;;;14.48;10.32;;;21.60;72.20;;;;;;4134807;28;20510;-88
2022/06/26 06:11:25;;;;;;;13.57;9.82;;;21.70;72.10;;;;;;4134851;28;20515;-86
2022/06/26 06:13:46;;;;;;;20.95;10.73;;;21.80;72.20;;;;;;4134279;28;20027;-86
2022/06/26 06:16:07;;;;;;;17.23;10.40;;;21.90;72.00;;;;;;4140846;28;20133;-87
2022/06/26 06:18:28;;;;;;;17.42;11.27;;;22.00;71.90;;;;;;4134173;28;20499;-88
2022/06/26 06:20:50;;;;;;;17.05;10.55;;;22.10;71.40;;;;;;4134615;28;20044;-88
2022/06/26 06:23:11;;;;;;;15.20;9.43;;;22.20;71.20;;;;;;4137768;28;20091;-86
2022/06/26 06:25:33;;;;;;;16.90;9.15;;;22.30;70.90;;;;;;4141799;28;20397;-86
2022/06/26 06:27:54;;;;;;;16.15;8.88;;;22.30;70.30;;;;;;4143448;28;20042;-86
2022/06/26 06:30:16;;;;;;;12.00;8.52;;;22.50;69.80;;;;;;4139607;28;20129;-87
2022/06/26 06:32:37;;;;;;;14.20;8.85;;;22.50;69.00;;;;;;4125573;28;20035;-88
2022/06/26 06:34:59;;;;;;;8.52;7.05;;;22.50;68.60;;;;;;4135753;28;20030;-87
2022/06/26 06:37:20;;;;;;;13.48;8.55;;;22.60;68.60;;;;;;4134692;28;20112;-89
2022/06/26 06:39:42;;;;;;;16.02;9.52;;;22.70;68.70;;;;;;4135410;28;20057;-88
2022/06/26 06:42:03;;;;;;;13.45;9.77;;;22.80;68.30;;;;;;4137920;28;20072;-87
2022/06/26 06:44:24;;;;;;;12.60;9.80;;;22.80;68.20;;;;;;4137016;28;20402;-87
2022/06/26 06:46:45;;;;;;;25.33;8.57;;;22.80;68.30;;;;;;4138563;28;20080;-88
2022/06/26 06:49:06;;;;;;;15.32;9.85;;;22.90;68.70;;;;;;4131988;28;20089;-88
2022/06/26 06:51:27;;;;;;;16.55;8.95;;;23.00;68.90;;;;;;4124700;28;20034;-89
2022/06/26 06:53:49;;;;;;;16.33;10.13;;;23.00;68.70;;;;;;4134497;28;20057;-89
2022/06/26 06:56:10;;;;;;;12.18;8.60;;;23.10;68.70;;;;;;4124249;28;20503;-92
2022/06/26 06:58:31;;;;;;;14.95;9.48;;;23.20;68.70;;;;;;4133213;28;20037;-91
2022/06/26 07:00:51;;;;;;;13.32;8.60;;;23.40;68.70;;;;;;4133948;28;20148;-88
2022/06/26 07:03:12;;;;;;;11.98;8.57;;;23.50;68.40;;;;;;4134195;28;20105;-89
2022/06/26 07:05:36;;;;;;;10.95;8.02;;;23.50;67.80;;;;;;4136438;28;20509;-88
2022/06/26 07:07:58;;;;;;;14.02;8.45;;;23.60;67.60;;;;;;4138351;28;20453;-88
2022/06/26 07:10:19;;;;;;;12.57;7.75;;;23.70;67.30;;;;;;4132102;28;20079;-88
2022/06/26 07:12:40;;;;;;;9.93;8.25;;;23.80;66.80;;;;;;4141841;28;20117;-88
2022/06/26 07:15:01;;;;;;;12.55;7.82;;;23.90;66.60;;;;;;4133922;28;20037;-91
2022/06/26 07:17:22;;;;;;;12.18;7.47;;;23.90;66.30;;;;;;4138108;28;20061;-87
2022/06/26 07:19:44;;;;;;;13.10;7.07;;;24.00;66.00;;;;;;4123912;28;20034;-89
2022/06/26 07:22:05;;;;;;;11.77;7.63;;;24.10;66.00;;;;;;4137099;28;20022;-87
2022/06/26 07:24:26;;;;;;;10.95;7.68;;;24.20;65.80;;;;;;4136124;28;20097;-88
2022/06/26 07:26:47;;;;;;;13.73;7.75;;;24.20;65.60;;;;;;4123802;28;21066;-87
2022/06/26 07:29:08;;;;;;;10.02;7.30;;;24.30;65.30;;;;;;4123960;28;20042;-88
2022/06/26 07:31:29;;;;;;;12.05;6.93;;;24.40;65.20;;;;;;4135886;28;20042;-87
2022/06/26 07:36:30;;;;;;;9.52;6.47;;;24.50;65.00;;;;;;4135137;28;20458;-87
2022/06/26 07:38:51;;;;;;;10.45;5.95;;;24.50;64.60;;;;;;4123880;28;20439;-87
2022/06/26 07:41:12;;;;;;;10.48;6.43;;;24.60;64.60;;;;;;4133440;28;20112;-88
2022/06/26 07:43:33;;;;;;;8.57;5.10;;;24.70;64.40;;;;;;4137864;28;20026;-88
2022/06/26 07:45:56;;;;;;;9.40;5.22;;;24.80;63.90;;;;;;4121713;28;20034;-86
2022/06/26 07:48:17;;;;;;;6.50;4.80;;;24.80;63.50;;;;;;4131416;28;20042;-87
2022/06/26 07:50:38;;;;;;;9.15;6.22;;;24.90;63.10;;;;;;4138720;28;20120;-87
2022/06/26 07:52:59;;;;;;;10.38;4.93;;;25.00;62.80;;;;;;4127699;28;20119;-90
2022/06/26 07:55:21;;;;;;;8.63;4.30;;;25.10;62.80;;;;;;4134336;28;20383;-87
2022/06/26 07:57:43;;;;;;;8.88;4.93;;;25.10;62.50;;;;;;4119837;28;20046;-89
2022/06/26 08:00:05;;;;;;;6.72;4.70;;;25.20;62.00;;;;;;4134107;28;20038;-87
2022/06/26 08:02:28;;;;;;;9.02;5.40;;;25.30;61.80;;;;;;4134852;28;20038;-89
2022/06/26 08:04:49;;;;;;;5.35;3.90;;;25.40;61.70;;;;;;4129188;28;20745;-88
2022/06/26 08:07:11;;;;;;;5.82;4.30;;;25.50;61.90;;;;;;4120646;28;20038;-86
2022/06/26 08:09:32;;;;;;;6.35;4.20;;;25.60;61.00;;;;;;4135790;28;20125;-89
2022/06/26 08:11:53;;;;;;;8.65;3.97;;;25.60;60.00;;;;;;4133364;28;20123;-87
2022/06/26 08:14:15;;;;;;;7.45;4.25;;;25.70;59.90;;;;;;4132022;28;20398;-82
2022/06/26 08:16:37;;;;;;;5.32;4.22;;;25.80;60.00;;;;;;4128341;28;20521;-87
2022/06/26 08:19:00;;;;;;;5.72;3.70;;;25.90;60.30;;;;;;4127423;28;20674;-88
2022/06/26 08:24:01;;;;;;;6.25;4.28;;;26.10;59.60;;;;;;4123403;28;20038;-91
2022/06/26 08:26:22;;;;;;;4.72;3.22;;;26.20;59.10;;;;;;4130939;28;20034;-88
2022/06/26 08:28:43;;;;;;;4.20;3.30;;;26.30;59.30;;;;;;4133174;28;20034;-89
2022/06/26 08:31:04;;;;;;;5.28;3.33;;;26.40;59.40;;;;;;4130420;28;20073;-88
2022/06/26 08:33:35;;;;;;;5.75;3.90;;;26.50;59.30;;;;;;4133221;28;20042;-89
2022/06/26 08:35:56;;;;;;;7.65;3.47;;;26.60;58.90;;;;;;4132956;28;20040;-90
2022/06/26 08:38:17;;;;;;;6.45;2.95;;;26.60;58.90;;;;;;4128955;28;20034;-88
2022/06/26 08:40:38;;;;;;;4.82;3.03;;;26.60;58.40;;;;;;4122827;28;20046;-87
2022/06/26 08:43:02;;;;;;;7.15;3.40;;;26.70;58.10;;;;;;4129271;28;20030;-89
2022/06/26 08:45:24;;;;;;;4.18;2.92;;;26.70;57.30;;;;;;4125485;28;20038;-89
2022/06/26 08:47:49;;;;;;;4.63;2.95;;;26.80;57.00;;;;;;4120323;28;20411;-87
2022/06/26 08:50:11;;;;;;;8.45;3.38;;;26.90;56.50;;;;;;4131843;28;20030;-86
2022/06/26 08:52:33;;;;;;;8.27;3.30;;;27.00;56.50;;;;;;4125406;28;20113;-87
2022/06/26 08:54:55;;;;;;;7.10;3.30;;;27.00;55.90;;;;;;4128824;28;20049;-88
2022/06/26 08:57:16;;;;;;;6.45;3.55;;;27.10;55.20;;;;;;4122754;28;20125;-88
2022/06/26 08:59:37;;;;;;;5.35;3.72;;;27.20;55.50;;;;;;4133983;28;20030;-87
2022/06/26 09:01:58;;;;;;;16.20;3.67;;;27.30;55.00;;;;;;4120065;28;20491;-87
2022/06/26 09:04:20;;;;;;;6.68;2.97;;;27.30;55.00;;;;;;4130188;28;20054;-86
2022/06/26 09:06:42;;;;;;;6.95;3.53;;;27.40;55.00;;;;;;4120719;28;20105;-86
2022/06/26 09:09:24;;;;;;;6.50;3.88;;;27.50;54.70;;;;;;4130646;28;20058;-87
2022/06/26 09:11:46;;;;;;;9.38;3.08;;;27.50;52.80;;;;;;4132972;28;20046;-87
2022/06/26 09:14:07;;;;;;;5.38;3.40;;;27.60;53.30;;;;;;4131199;28;20030;-86
2022/06/26 09:16:31;;;;;;;18.05;3.75;;;27.50;52.80;;;;;;4111785;28;20030;-86
2022/06/26 09:18:52;;;;;;;4.13;3.28;;;27.60;53.30;;;;;;4129225;28;20034;-86
2022/06/26 09:21:13;;;;;;;6.82;3.22;;;27.60;53.20;;;;;;4120937;28;20034;-84
2022/06/26 09:23:37;;;;;;;5.18;3.00;;;27.70;53.60;;;;;;4126929;28;20018;-87
2022/06/26 09:25:58;;;;;;;3.38;3.00;;;27.70;53.30;;;;;;4138426;28;20041;-86
2022/06/26 09:28:21;;;;;;;7.70;3.33;;;27.80;53.60;;;;;;4120462;28;20034;-84
2022/06/26 09:31:00;;;;;;;5.17;2.50;;;27.80;53.80;;;;;;4136317;28;20096;-86
2022/06/26 09:33:33;;;;;;;2.35;1.98;;;27.90;51.30;;;;;;4134512;28;20125;-85
2022/06/26 09:35:55;;;;;;;3.07;2.40;;;28.00;51.90;;;;;;4134445;28;20048;-87
2022/06/26 09:38:28;;;;;;;4.15;2.30;;;28.00;51.30;;;;;;4122359;28;20118;-86
2022/06/26 09:40:52;;;;;;;4.00;2.13;;;28.10;50.40;;;;;;4137809;28;20037;-86
2022/06/26 09:43:27;;;;;;;6.28;2.40;;;28.20;50.70;;;;;;4132740;28;20038;-87
2022/06/26 09:45:48;;;;;;;4.32;2.08;;;28.30;50.20;;;;;;4134114;28;20088;-85
2022/06/26 09:48:10;;;;;;;4.45;2.20;;;28.30;50.60;;;;;;4128298;28;20030;-87
2022/06/26 09:50:31;;;;;;;4.97;2.30;;;28.40;49.80;;;;;;4122695;28;20046;-88
2022/06/26 09:52:53;;;;;;;7.97;3.72;;;28.50;49.10;;;;;;4134111;28;20046;-86
2022/06/26 09:55:14;;;;;;;5.00;2.80;;;28.60;48.80;;;;;;4117848;28;20041;-87
2022/06/26 09:57:36;;;;;;;4.22;2.60;;;28.60;47.90;;;;;;4119344;28;20110;-87
2022/06/26 09:59:58;;;;;;;3.08;2.50;;;28.60;47.70;;;;;;4121306;28;20039;-88
2022/06/26 10:07:52;;;;;;;4.63;2.75;;;28.60;46.10;;;;;;4133303;28;20132;-89
2022/06/26 10:10:16;;;;;;;5.85;2.50;;;28.60;47.20;;;;;;4130424;28;20034;-84
2022/06/26 10:12:37;;;;;;;4.75;2.30;;;28.60;46.80;;;;;;4133936;28;20530;-84
2022/06/26 10:14:59;;;;;;;7.35;2.90;;;28.60;47.50;;;;;;4120491;28;20062;-87
2022/06/26 10:17:47;;;;;;;5.90;2.40;;;28.60;47.80;;;;;;4140067;28;20034;-86
2022/06/26 10:20:11;;;;;;;4.07;2.17;;;28.60;47.10;;;;;;4132509;28;20582;-87
2022/06/26 10:22:45;;;;;;;2.83;2.13;;;28.60;47.50;;;;;;4115412;28;20061;-87
2022/06/26 10:25:07;;;;;;;2.28;1.80;;;28.60;46.90;;;;;;4132123;28;20034;-88
2022/06/26 10:27:30;;;;;;;6.03;2.38;;;28.70;47.90;;;;;;4117699;28;20419;-90
2022/06/26 10:30:02;;;;;;;3.30;2.10;;;28.70;47.80;;;;;;4120356;28;20137;-89
2022/06/26 10:32:23;;;;;;;5.25;2.97;;;28.70;47.40;;;;;;4126472;28;20042;-87
2022/06/26 10:34:54;;;;;;;4.18;2.53;;;28.70;46.70;;;;;;4132980;28;20038;-87
2022/06/26 10:37:15;;;;;;;5.60;2.15;;;28.70;46.30;;;;;;4133205;28;20402;-88
2022/06/26 10:39:42;;;;;;;3.53;2.22;;;28.80;46.60;;;;;;4135124;28;20039;-88
2022/06/26 10:44:55;;;;;;;3.40;1.98;;;28.80;46.10;;;;;;4134379;28;20033;-88
2022/06/26 10:47:17;;;;;;;4.53;2.28;;;28.80;46.50;;;;;;4123949;28;20030;-89
2022/06/26 10:49:46;;;;;;;4.88;1.90;;;28.80;46.50;;;;;;4136533;28;20057;-88
2022/06/26 10:52:07;;;;;;;6.88;2.38;;;28.80;46.50;;;;;;4119618;28;20092;-87
2022/06/26 10:54:32;;;;;;;3.40;2.10;;;28.80;46.80;;;;;;4131534;28;20161;-90
2022/06/26 10:57:14;;;;;;;3.95;1.85;;;28.90;46.20;;;;;;4130170;28;20556;-89
2022/06/26 10:59:40;;;;;;;3.05;2.05;;;28.90;46.40;;;;;;4116611;28;20035;-89
2022/06/26 11:02:01;;;;;;;9.50;3.22;;;29.00;46.70;;;;;;4121412;28;20065;-89
2022/06/26 11:04:22;;;;;;;6.45;2.22;;;29.10;46.20;;;;;;4130988;28;20083;-88
2022/06/26 11:06:44;;;;;;;4.22;2.20;;;29.20;46.10;;;;;;4118924;28;20114;-88
2022/06/26 11:09:07;;;;;;;10.38;2.78;;;29.20;46.20;;;;;;4134855;28;20521;-88
2022/06/26 11:11:33;;;;;;;4.28;2.53;;;29.20;46.50;;;;;;4133508;28;20387;-88
2022/06/26 11:13:59;;;;;;;4.30;2.33;;;29.30;46.00;;;;;;4119819;28;20430;-88
2022/06/26 11:16:42;;;;;;;6.18;3.00;;;29.30;45.40;;;;;;4132834;28;20034;-88
2022/06/26 11:19:06;;;;;;;6.85;3.60;;;29.30;43.90;;;;;;4124165;28;20430;-87
2022/06/26 11:21:27;;;;;;;9.00;4.47;;;29.20;44.40;;;;;;4134920;28;20026;-87
2022/06/26 11:23:51;;;;;;;9.48;6.50;;;29.20;46.10;;;;;;4120020;28;20458;-87
2022/06/26 11:26:15;;;;;;;13.13;7.43;;;29.20;47.40;;;;;;4133594;28;20045;-88
2022/06/26 11:28:41;;;;;;;11.90;8.55;;;29.10;47.90;;;;;;4119867;28;20030;-88
2022/06/26 11:31:04;;;;;;;12.40;7.40;;;29.10;47.90;;;;;;4129982;28;20045;-88
2022/06/26 11:33:27;;;;;;;12.17;8.27;;;29.00;48.50;;;;;;4129956;28;20506;-87
2022/06/26 11:35:48;;;;;;;10.30;8.02;;;28.90;48.80;;;;;;4130839;28;20817;-88
2022/06/26 11:38:14;;;;;;;14.50;9.25;;;28.80;48.70;;;;;;4133197;28;20045;-88
2022/06/26 11:40:36;;;;;;;11.75;8.95;;;28.70;49.00;;;;;;4116739;28;20121;-88
2022/06/26 11:42:57;;;;;;;14.98;8.93;;;28.50;49.20;;;;;;4112098;28;20065;-89
2022/06/26 11:45:26;;;;;;;12.32;9.43;;;28.40;49.20;;;;;;4132542;28;20033;-87
2022/06/26 11:47:47;;;;;;;11.80;8.77;;;28.30;49.10;;;;;;4122859;28;20156;-87
2022/06/26 11:50:18;;;;;;;11.48;7.43;;;28.20;49.20;;;;;;4115099;28;20096;-87
2022/06/26 11:52:39;;;;;;;9.93;7.25;;;28.00;48.90;;;;;;4128998;28;20038;-86
2022/06/26 11:55:01;;;;;;;11.38;6.22;;;27.90;49.10;;;;;;4124865;28;20048;-89
2022/06/26 11:57:23;;;;;;;9.18;6.03;;;27.70;48.50;;;;;;4115115;28;20069;-87
2022/06/26 11:59:45;;;;;;;8.25;6.57;;;27.60;48.40;;;;;;4122441;28;20038;-89
2022/06/26 12:02:20;;;;;;;12.88;6.95;;;27.50;48.60;;;;;;4126235;28;20049;-87
2022/06/26 12:04:41;;;;;;;12.95;6.07;;;27.30;48.50;;;;;;4115647;28;20037;-87
2022/06/26 12:07:04;;;;;;;7.50;5.60;;;27.20;49.00;;;;;;4119826;28;20038;-87
2022/06/26 12:09:28;;;;;;;7.50;4.88;;;27.10;49.50;;;;;;4125295;28;20042;-87
2022/06/26 12:11:52;;;;;;;7.18;4.45;;;27.00;49.10;;;;;;4106444;28;20495;-88
2022/06/26 12:14:16;;;;;;;6.75;3.25;;;26.80;49.00;;;;;;4120956;28;20456;-88
2022/06/26 12:17:05;;;;;;;4.00;2.60;;;26.70;49.40;;;;;;4123668;28;20117;-88
2022/06/26 12:19:38;;;;;;;3.30;1.80;;;26.70;49.60;;;;;;4118594;28;20038;-89
2022/06/26 12:21:59;;;;;;;6.20;1.92;;;26.60;49.00;;;;;;4131025;28;20479;-89
2022/06/26 12:24:21;;;;;;;4.95;2.03;;;26.60;49.30;;;;;;4128527;28;20100;-88
2022/06/26 12:26:43;;;;;;;3.72;1.52;;;26.50;49.10;;;;;;4123731;28;20081;-87
2022/06/26 12:29:13;;;;;;;6.18;1.40;;;26.50;48.90;;;;;;4121214;28;20405;-83
2022/06/26 12:31:35;;;;;;;3.15;1.27;;;26.50;48.50;;;;;;4115317;28;20097;-88